sensor_id;sensor_type;location;lat;lon;timestamp;temperature;humidity
34574;DHT22;20809;49.594;8.734;2023-02-22T00:08:36;2.90;99.90
34574;DHT22;20809;49.594;8.734;2023-02-22T00:11:37;2.90;99.90
34574;DHT22;20809;49.594;8.734;2023-02-22T00:14:38;2.80;99.90
34574;DHT22;20809;49.594;8.734;2023-02-22T00:17:39;2.80;99.90
34574;DHT22;20809;49.594;8.734;2023-02-22T00:20:40;2.80;99.90
34574;DHT22;20809;49.594;8.734;2023-02-22T00:23:43;2.80;99.90
34574;DHT22;20809;49.594;8.734;2023-02-22T00:26:53;2.70;99.90
34574;DHT22;20809;49.594;8.734;2023-02-22T00:29:56;2.60;99.90
34574;DHT22;20809;49.594;8.734;2023-02-22T00:32:58;2.50;99.90
34574;DHT22;20809;49.594;8.734;2023-02-22T00:35:59;2.40;99.90
34574;DHT22;20809;49.594;8.734;2023-02-22T00:38:59;2.30;99.90
34574;DHT22;20809;49.594;8.734;2023-02-22T00:42:00;2.30;99.90
34574;DHT22;20809;49.594;8.734;2023-02-22T00:45:01;2.30;99.90
34574;DHT22;20809;49.594;8.734;2023-02-22T00:48:03;2.30;99.90
34574;DHT22;20809;49.594;8.734;2023-02-22T00:51:04;2.40;99.90
34574;DHT22;20809;49.594;8.734;2023-02-22T00:54:05;2.30;99.90
34574;DHT22;20809;49.594;8.734;2023-02-22T00:57:06;2.20;99.90
34574;DHT22;20809;49.594;8.734;2023-02-22T01:00:08;2.20;99.90
34574;DHT22;20809;49.594;8.734;2023-02-22T01:03:15;2.20;99.90
34574;DHT22;20809;49.594;8.734;2023-02-22T01:06:16;2.10;99.90
34574;DHT22;20809;49.594;8.734;2023-02-22T01:09:17;2.10;99.90
34574;DHT22;20809;49.594;8.734;2023-02-22T01:12:18;2.10;99.90
34574;DHT22;20809;49.594;8.734;2023-02-22T01:15:23;2.10;99.90
34574;DHT22;20809;49.594;8.734;2023-02-22T01:18:24;2.20;99.90
34574;DHT22;20809;49.594;8.734;2023-02-22T01:21:25;2.10;99.90
34574;DHT22;20809;49.594;8.734;2023-02-22T01:24:26;2.00;99.90
34574;DHT22;20809;49.594;8.734;2023-02-22T01:27:27;2.00;99.90
34574;DHT22;20809;49.594;8.734;2023-02-22T01:30:30;2.10;99.90
34574;DHT22;20809;49.594;8.734;2023-02-22T01:33:32;2.30;99.90
34574;DHT22;20809;49.594;8.734;2023-02-22T01:36:33;2.30;99.90
34574;DHT22;20809;49.594;8.734;2023-02-22T01:39:34;2.20;99.90
34574;DHT22;20809;49.594;8.734;2023-02-22T01:42:35;2.10;99.90
34574;DHT22;20809;49.594;8.734;2023-02-22T01:45:52;2.00;99.90
34574;DHT22;20809;49.594;8.734;2023-02-22T01:48:57;2.00;99.90
34574;DHT22;20809;49.594;8.734;2023-02-22T01:52:01;2.00;99.90
34574;DHT22;20809;49.594;8.734;2023-02-22T01:59:12;1.90;99.90
34574;DHT22;20809;49.594;8.734;2023-02-22T02:02:12;1.80;99.90
34574;DHT22;20809;49.594;8.734;2023-02-22T02:05:14;1.80;99.90
34574;DHT22;20809;49.594;8.734;2023-02-22T02:08:18;1.70;99.90
34574;DHT22;20809;49.594;8.734;2023-02-22T02:11:24;1.70;99.90
34574;DHT22;20809;49.594;8.734;2023-02-22T02:14:27;1.70;99.90
34574;DHT22;20809;49.594;8.734;2023-02-22T02:17:31;1.80;99.90
34574;DHT22;20809;49.594;8.734;2023-02-22T02:34:48;1.60;99.90
34574;DHT22;20809;49.594;8.734;2023-02-22T02:38:01;1.60;99.90
34574;DHT22;20809;49.594;8.734;2023-02-22T02:41:24;1.60;99.90
34574;DHT22;20809;49.594;8.734;2023-02-22T02:47:36;1.60;99.90
34574;DHT22;20809;49.594;8.734;2023-02-22T02:50:47;1.60;99.90
34574;DHT22;20809;49.594;8.734;2023-02-22T02:53:51;1.60;99.90
34574;DHT22;20809;49.594;8.734;2023-02-22T02:56:52;1.50;99.90
34574;DHT22;20809;49.594;8.734;2023-02-22T02:59:55;1.40;99.90
34574;DHT22;20809;49.594;8.734;2023-02-22T03:10:12;1.30;99.90
34574;DHT22;20809;49.594;8.734;2023-02-22T03:16:19;1.30;99.90
34574;DHT22;20809;49.594;8.734;2023-02-22T03:19:32;1.20;99.90
34574;DHT22;20809;49.594;8.734;2023-02-22T03:22:44;1.20;99.90
34574;DHT22;20809;49.594;8.734;2023-02-22T03:26:02;1.20;99.90
34574;DHT22;20809;49.594;8.734;2023-02-22T03:29:06;1.10;99.90
34574;DHT22;20809;49.594;8.734;2023-02-22T03:32:14;1.10;99.90
34574;DHT22;20809;49.594;8.734;2023-02-22T03:35:24;1.10;99.90
34574;DHT22;20809;49.594;8.734;2023-02-22T03:38:28;1.00;99.90
34574;DHT22;20809;49.594;8.734;2023-02-22T03:41:33;1.10;99.90
34574;DHT22;20809;49.594;8.734;2023-02-22T03:44:44;1.10;99.90
34574;DHT22;20809;49.594;8.734;2023-02-22T03:47:52;1.20;99.90
34574;DHT22;20809;49.594;8.734;2023-02-22T03:50:57;1.20;99.90
34574;DHT22;20809;49.594;8.734;2023-02-22T03:54:03;1.20;99.90
34574;DHT22;20809;49.594;8.734;2023-02-22T03:57:20;1.20;99.90
34574;DHT22;20809;49.594;8.734;2023-02-22T04:00:27;1.20;99.90
34574;DHT22;20809;49.594;8.734;2023-02-22T04:03:29;1.20;99.90
34574;DHT22;20809;49.594;8.734;2023-02-22T04:06:33;1.20;99.90
34574;DHT22;20809;49.594;8.734;2023-02-22T04:09:36;1.20;99.90
34574;DHT22;20809;49.594;8.734;2023-02-22T04:12:38;1.20;99.90
34574;DHT22;20809;49.594;8.734;2023-02-22T04:15:41;1.20;99.90
34574;DHT22;20809;49.594;8.734;2023-02-22T04:18:43;1.30;99.90
34574;DHT22;20809;49.594;8.734;2023-02-22T04:21:44;1.20;99.90
34574;DHT22;20809;49.594;8.734;2023-02-22T04:24:48;1.20;99.90
34574;DHT22;20809;49.594;8.734;2023-02-22T04:27:50;1.20;99.90
34574;DHT22;20809;49.594;8.734;2023-02-22T04:30:53;1.20;99.90
34574;DHT22;20809;49.594;8.734;2023-02-22T04:33:55;1.20;99.90
34574;DHT22;20809;49.594;8.734;2023-02-22T04:36:59;1.10;99.90
34574;DHT22;20809;49.594;8.734;2023-02-22T04:40:03;1.20;99.90
34574;DHT22;20809;49.594;8.734;2023-02-22T04:43:08;1.20;99.90
34574;DHT22;20809;49.594;8.734;2023-02-22T04:46:09;1.20;99.90
34574;DHT22;20809;49.594;8.734;2023-02-22T04:49:10;1.20;99.90
34574;DHT22;20809;49.594;8.734;2023-02-22T04:52:14;1.20;99.90
34574;DHT22;20809;49.594;8.734;2023-02-22T04:55:17;1.20;99.90
34574;DHT22;20809;49.594;8.734;2023-02-22T04:58:19;1.30;99.90
34574;DHT22;20809;49.594;8.734;2023-02-22T05:01:21;1.30;99.90
34574;DHT22;20809;49.594;8.734;2023-02-22T05:04:23;1.30;99.90
34574;DHT22;20809;49.594;8.734;2023-02-22T05:07:24;1.30;99.90
34574;DHT22;20809;49.594;8.734;2023-02-22T05:10:25;1.30;99.90
34574;DHT22;20809;49.594;8.734;2023-02-22T05:13:26;1.20;99.90
34574;DHT22;20809;49.594;8.734;2023-02-22T05:16:28;1.10;99.90
34574;DHT22;20809;49.594;8.734;2023-02-22T05:19:30;1.10;99.90
34574;DHT22;20809;49.594;8.734;2023-02-22T05:22:31;1.00;99.90
34574;DHT22;20809;49.594;8.734;2023-02-22T05:25:32;1.00;99.90
34574;DHT22;20809;49.594;8.734;2023-02-22T05:28:33;0.90;99.90
34574;DHT22;20809;49.594;8.734;2023-02-22T05:31:37;0.90;99.90
34574;DHT22;20809;49.594;8.734;2023-02-22T05:34:41;0.90;99.90
34574;DHT22;20809;49.594;8.734;2023-02-22T05:37:43;0.80;99.90
34574;DHT22;20809;49.594;8.734;2023-02-22T05:40:45;0.80;99.90
34574;DHT22;20809;49.594;8.734;2023-02-22T05:43:47;0.90;99.90
34574;DHT22;20809;49.594;8.734;2023-02-22T05:46:50;0.80;99.90
34574;DHT22;20809;49.594;8.734;2023-02-22T05:49:53;0.80;99.90
34574;DHT22;20809;49.594;8.734;2023-02-22T05:52:56;0.80;99.90
34574;DHT22;20809;49.594;8.734;2023-02-22T05:55:59;1.00;99.90
34574;DHT22;20809;49.594;8.734;2023-02-22T05:59:03;1.00;99.90
34574;DHT22;20809;49.594;8.734;2023-02-22T06:02:05;1.00;99.90
34574;DHT22;20809;49.594;8.734;2023-02-22T06:05:08;1.00;99.90
34574;DHT22;20809;49.594;8.734;2023-02-22T06:08:11;0.90;99.90
34574;DHT22;20809;49.594;8.734;2023-02-22T06:11:15;0.80;99.90
34574;DHT22;20809;49.594;8.734;2023-02-22T06:14:19;0.80;99.90
34574;DHT22;20809;49.594;8.734;2023-02-22T06:17:22;0.80;99.90
34574;DHT22;20809;49.594;8.734;2023-02-22T06:20:29;0.80;99.90
34574;DHT22;20809;49.594;8.734;2023-02-22T06:23:35;0.80;99.90
34574;DHT22;20809;49.594;8.734;2023-02-22T06:26:40;0.90;99.90
34574;DHT22;20809;49.594;8.734;2023-02-22T06:29:46;0.90;99.90
34574;DHT22;20809;49.594;8.734;2023-02-22T06:32:48;1.00;99.90
34574;DHT22;20809;49.594;8.734;2023-02-22T06:35:51;1.00;99.90
34574;DHT22;20809;49.594;8.734;2023-02-22T06:38:56;1.00;99.90
34574;DHT22;20809;49.594;8.734;2023-02-22T06:41:59;1.00;99.90
34574;DHT22;20809;49.594;8.734;2023-02-22T06:45:03;1.10;99.90
34574;DHT22;20809;49.594;8.734;2023-02-22T06:48:05;1.20;99.90
34574;DHT22;20809;49.594;8.734;2023-02-22T06:51:09;1.30;99.90
34574;DHT22;20809;49.594;8.734;2023-02-22T06:54:13;1.40;99.90
34574;DHT22;20809;49.594;8.734;2023-02-22T06:57:18;1.50;99.90
34574;DHT22;20809;49.594;8.734;2023-02-22T07:00:22;1.70;99.90
34574;DHT22;20809;49.594;8.734;2023-02-22T07:03:26;1.80;99.90
34574;DHT22;20809;49.594;8.734;2023-02-22T07:06:31;2.00;99.90
34574;DHT22;20809;49.594;8.734;2023-02-22T07:09:34;2.10;99.90
34574;DHT22;20809;49.594;8.734;2023-02-22T07:12:35;2.20;99.90
34574;DHT22;20809;49.594;8.734;2023-02-22T07:15:40;2.30;99.90
34574;DHT22;20809;49.594;8.734;2023-02-22T07:18:44;2.50;99.90
34574;DHT22;20809;49.594;8.734;2023-02-22T07:21:49;2.60;99.90
34574;DHT22;20809;49.594;8.734;2023-02-22T07:25:01;2.80;99.90
34574;DHT22;20809;49.594;8.734;2023-02-22T07:28:05;3.00;99.90
34574;DHT22;20809;49.594;8.734;2023-02-22T07:31:10;3.20;99.90
34574;DHT22;20809;49.594;8.734;2023-02-22T07:34:15;3.40;99.90
34574;DHT22;20809;49.594;8.734;2023-02-22T07:37:21;3.60;99.90
34574;DHT22;20809;49.594;8.734;2023-02-22T07:40:25;3.70;99.90
34574;DHT22;20809;49.594;8.734;2023-02-22T07:43:29;3.90;99.90
34574;DHT22;20809;49.594;8.734;2023-02-22T07:46:31;4.10;99.90
34574;DHT22;20809;49.594;8.734;2023-02-22T07:49:34;4.20;99.90
34574;DHT22;20809;49.594;8.734;2023-02-22T07:52:38;4.40;99.90
34574;DHT22;20809;49.594;8.734;2023-02-22T07:55:42;4.50;99.90
34574;DHT22;20809;49.594;8.734;2023-02-22T07:58:46;4.30;99.90
34574;DHT22;20809;49.594;8.734;2023-02-22T08:01:49;4.50;99.90
34574;DHT22;20809;49.594;8.734;2023-02-22T08:04:51;4.50;99.90
34574;DHT22;20809;49.594;8.734;2023-02-22T08:07:56;4.60;99.90
34574;DHT22;20809;49.594;8.734;2023-02-22T08:11:07;4.50;99.90
34574;DHT22;20809;49.594;8.734;2023-02-22T08:14:14;4.40;99.90
34574;DHT22;20809;49.594;8.734;2023-02-22T08:17:16;4.20;99.90
34574;DHT22;20809;49.594;8.734;2023-02-22T08:20:18;4.40;99.90
34574;DHT22;20809;49.594;8.734;2023-02-22T08:23:21;4.70;99.90
34574;DHT22;20809;49.594;8.734;2023-02-22T08:26:26;4.90;99.90
34574;DHT22;20809;49.594;8.734;2023-02-22T08:29:28;5.30;99.90
34574;DHT22;20809;49.594;8.734;2023-02-22T08:32:33;5.50;99.90
34574;DHT22;20809;49.594;8.734;2023-02-22T08:35:38;5.70;99.90
34574;DHT22;20809;49.594;8.734;2023-02-22T08:38:41;5.90;99.90
34574;DHT22;20809;49.594;8.734;2023-02-22T08:41:44;6.20;99.90
34574;DHT22;20809;49.594;8.734;2023-02-22T08:44:47;6.50;99.90
34574;DHT22;20809;49.594;8.734;2023-02-22T08:47:49;6.80;99.90
34574;DHT22;20809;49.594;8.734;2023-02-22T08:50:53;7.00;99.90
34574;DHT22;20809;49.594;8.734;2023-02-22T08:53:57;7.20;99.90
34574;DHT22;20809;49.594;8.734;2023-02-22T08:57:03;7.40;99.90
34574;DHT22;20809;49.594;8.734;2023-02-22T09:00:11;7.60;99.90
34574;DHT22;20809;49.594;8.734;2023-02-22T09:03:15;7.90;99.90
34574;DHT22;20809;49.594;8.734;2023-02-22T09:06:17;8.20;99.90
34574;DHT22;20809;49.594;8.734;2023-02-22T09:09:19;8.40;99.90
34574;DHT22;20809;49.594;8.734;2023-02-22T09:12:20;8.60;99.90
34574;DHT22;20809;49.594;8.734;2023-02-22T09:15:23;8.60;99.90
34574;DHT22;20809;49.594;8.734;2023-02-22T09:18:26;8.80;99.90
34574;DHT22;20809;49.594;8.734;2023-02-22T09:21:27;9.00;99.90
34574;DHT22;20809;49.594;8.734;2023-02-22T09:24:28;9.20;99.90
34574;DHT22;20809;49.594;8.734;2023-02-22T09:27:30;9.40;99.90
34574;DHT22;20809;49.594;8.734;2023-02-22T09:30:33;9.50;99.90
34574;DHT22;20809;49.594;8.734;2023-02-22T09:33:34;9.60;99.90
34574;DHT22;20809;49.594;8.734;2023-02-22T09:36:35;9.70;99.90
34574;DHT22;20809;49.594;8.734;2023-02-22T09:39:36;9.80;99.90
34574;DHT22;20809;49.594;8.734;2023-02-22T09:42:48;9.90;99.90
34574;DHT22;20809;49.594;8.734;2023-02-22T09:49:23;10.20;99.90
34574;DHT22;20809;49.594;8.734;2023-02-22T09:52:36;10.40;99.90
34574;DHT22;20809;49.594;8.734;2023-02-22T09:55:42;10.60;99.90
34574;DHT22;20809;49.594;8.734;2023-02-22T09:58:54;10.80;99.90
34574;DHT22;20809;49.594;8.734;2023-02-22T10:02:01;10.90;99.90
34574;DHT22;20809;49.594;8.734;2023-02-22T10:05:33;11.10;99.90
34574;DHT22;20809;49.594;8.734;2023-02-22T10:08:38;11.20;99.90
34574;DHT22;20809;49.594;8.734;2023-02-22T10:12:01;11.30;99.90
34574;DHT22;20809;49.594;8.734;2023-02-22T10:15:45;11.40;99.90
34574;DHT22;20809;49.594;8.734;2023-02-22T10:25:37;11.60;99.90
34574;DHT22;20809;49.594;8.734;2023-02-22T10:28:44;11.60;99.90
34574;DHT22;20809;49.594;8.734;2023-02-22T10:31:55;11.70;99.90
34574;DHT22;20809;49.594;8.734;2023-02-22T10:34:58;11.80;99.90
34574;DHT22;20809;49.594;8.734;2023-02-22T10:38:17;12.00;99.90
34574;DHT22;20809;49.594;8.734;2023-02-22T10:41:34;12.20;99.90
34574;DHT22;20809;49.594;8.734;2023-02-22T10:44:38;12.40;99.90
34574;DHT22;20809;49.594;8.734;2023-02-22T10:47:40;12.60;99.90
34574;DHT22;20809;49.594;8.734;2023-02-22T10:50:42;12.80;99.90
34574;DHT22;20809;49.594;8.734;2023-02-22T10:53:57;13.00;99.90
34574;DHT22;20809;49.594;8.734;2023-02-22T10:56:59;13.30;99.90
34574;DHT22;20809;49.594;8.734;2023-02-22T11:00:19;13.50;99.90
34574;DHT22;20809;49.594;8.734;2023-02-22T11:03:21;13.60;99.90
34574;DHT22;20809;49.594;8.734;2023-02-22T11:06:23;13.70;99.90
34574;DHT22;20809;49.594;8.734;2023-02-22T11:09:27;13.70;99.90
34574;DHT22;20809;49.594;8.734;2023-02-22T11:12:31;13.80;99.90
34574;DHT22;20809;49.594;8.734;2023-02-22T11:15:32;14.10;99.90
34574;DHT22;20809;49.594;8.734;2023-02-22T11:18:35;14.20;99.90
34574;DHT22;20809;49.594;8.734;2023-02-22T11:21:36;14.10;99.90
34574;DHT22;20809;49.594;8.734;2023-02-22T11:24:43;14.20;99.90
34574;DHT22;20809;49.594;8.734;2023-02-22T11:27:45;14.40;99.90
34574;DHT22;20809;49.594;8.734;2023-02-22T11:30:49;14.60;99.90
34574;DHT22;20809;49.594;8.734;2023-02-22T11:34:01;14.70;99.90
34574;DHT22;20809;49.594;8.734;2023-02-22T11:40:22;14.90;99.90
34574;DHT22;20809;49.594;8.734;2023-02-22T11:43:23;15.10;99.90
34574;DHT22;20809;49.594;8.734;2023-02-22T11:46:26;15.30;99.90
34574;DHT22;20809;49.594;8.734;2023-02-22T11:49:33;15.50;99.90
34574;DHT22;20809;49.594;8.734;2023-02-22T11:52:43;15.70;99.90
34574;DHT22;20809;49.594;8.734;2023-02-22T11:56:07;15.90;99.90
34574;DHT22;20809;49.594;8.734;2023-02-22T11:59:46;16.00;99.90
34574;DHT22;20809;49.594;8.734;2023-02-22T12:15:43;16.00;99.90
34574;DHT22;20809;49.594;8.734;2023-02-22T12:19:00;16.10;99.90
34574;DHT22;20809;49.594;8.734;2023-02-22T12:22:21;16.20;99.90
34574;DHT22;20809;49.594;8.734;2023-02-22T12:25:27;16.20;99.90
34574;DHT22;20809;49.594;8.734;2023-02-22T12:28:55;16.20;99.90
34574;DHT22;20809;49.594;8.734;2023-02-22T12:32:13;16.30;99.90
34574;DHT22;20809;49.594;8.734;2023-02-22T12:35:22;16.40;99.90
34574;DHT22;20809;49.594;8.734;2023-02-22T12:38:40;16.50;99.90
34574;DHT22;20809;49.594;8.734;2023-02-22T12:41:44;16.60;99.90
34574;DHT22;20809;49.594;8.734;2023-02-22T12:45:14;16.60;99.90
34574;DHT22;20809;49.594;8.734;2023-02-22T12:48:41;16.60;99.90
34574;DHT22;20809;49.594;8.734;2023-02-22T12:55:41;16.70;99.90
34574;DHT22;20809;49.594;8.734;2023-02-22T12:59:01;16.60;99.90
34574;DHT22;20809;49.594;8.734;2023-02-22T13:05:30;16.60;99.90
34574;DHT22;20809;49.594;8.734;2023-02-22T13:08:58;16.60;99.90
34574;DHT22;20809;49.594;8.734;2023-02-22T13:12:06;16.40;99.90
34574;DHT22;20809;49.594;8.734;2023-02-22T13:15:40;16.30;99.90
34574;DHT22;20809;49.594;8.734;2023-02-22T13:18:57;16.30;99.90
34574;DHT22;20809;49.594;8.734;2023-02-22T13:22:41;16.40;99.90
34574;DHT22;20809;49.594;8.734;2023-02-22T13:25:54;16.40;99.90
34574;DHT22;20809;49.594;8.734;2023-02-22T13:29:23;16.40;99.90
34574;DHT22;20809;49.594;8.734;2023-02-22T13:32:51;16.40;99.90
34574;DHT22;20809;49.594;8.734;2023-02-22T13:39:18;16.70;99.90
34574;DHT22;20809;49.594;8.734;2023-02-22T13:45:50;16.90;99.90
34574;DHT22;20809;49.594;8.734;2023-02-22T13:52:15;17.10;99.90
34574;DHT22;20809;49.594;8.734;2023-02-22T13:55:20;17.10;99.90
34574;DHT22;20809;49.594;8.734;2023-02-22T13:58:23;17.10;99.90
34574;DHT22;20809;49.594;8.734;2023-02-22T14:04:41;16.90;99.90
34574;DHT22;20809;49.594;8.734;2023-02-22T14:07:46;16.70;99.90
34574;DHT22;20809;49.594;8.734;2023-02-22T14:14:19;16.50;99.90
34574;DHT22;20809;49.594;8.734;2023-02-22T14:17:24;16.30;99.90
34574;DHT22;20809;49.594;8.734;2023-02-22T14:20:36;16.10;99.90
34574;DHT22;20809;49.594;8.734;2023-02-22T14:23:39;16.00;99.90
34574;DHT22;20809;49.594;8.734;2023-02-22T14:26:54;15.80;99.90
34574;DHT22;20809;49.594;8.734;2023-02-22T14:29:57;15.80;99.90
34574;DHT22;20809;49.594;8.734;2023-02-22T14:33:00;15.80;99.90
34574;DHT22;20809;49.594;8.734;2023-02-22T14:36:02;15.60;99.90
34574;DHT22;20809;49.594;8.734;2023-02-22T14:39:24;15.50;99.90
34574;DHT22;20809;49.594;8.734;2023-02-22T14:45:31;15.20;99.90
34574;DHT22;20809;49.594;8.734;2023-02-22T14:48:40;15.20;99.90
34574;DHT22;20809;49.594;8.734;2023-02-22T14:51:53;15.20;99.90
34574;DHT22;20809;49.594;8.734;2023-02-22T14:55:19;15.20;99.90
34574;DHT22;20809;49.594;8.734;2023-02-22T14:58:35;15.20;99.90
34574;DHT22;20809;49.594;8.734;2023-02-22T15:01:38;15.10;99.90
34574;DHT22;20809;49.594;8.734;2023-02-22T15:04:39;15.10;99.90
34574;DHT22;20809;49.594;8.734;2023-02-22T15:07:54;15.10;99.90
34574;DHT22;20809;49.594;8.734;2023-02-22T15:10:56;15.10;99.90
34574;DHT22;20809;49.594;8.734;2023-02-22T15:14:00;15.10;99.90
34574;DHT22;20809;49.594;8.734;2023-02-22T15:17:08;15.10;99.90
34574;DHT22;20809;49.594;8.734;2023-02-22T15:20:14;15.10;99.90
34574;DHT22;20809;49.594;8.734;2023-02-22T15:23:16;15.00;99.90
34574;DHT22;20809;49.594;8.734;2023-02-22T15:29:21;14.70;99.90
34574;DHT22;20809;49.594;8.734;2023-02-22T15:32:29;14.60;99.90
34574;DHT22;20809;49.594;8.734;2023-02-22T15:35:32;14.50;99.90
34574;DHT22;20809;49.594;8.734;2023-02-22T15:38:32;14.30;99.90
34574;DHT22;20809;49.594;8.734;2023-02-22T15:41:34;14.20;99.90
34574;DHT22;20809;49.594;8.734;2023-02-22T15:44:40;14.10;99.90
34574;DHT22;20809;49.594;8.734;2023-02-22T15:47:41;13.90;99.90
34574;DHT22;20809;49.594;8.734;2023-02-22T15:54:06;13.70;99.90
34574;DHT22;20809;49.594;8.734;2023-02-22T15:57:20;13.60;99.90
34574;DHT22;20809;49.594;8.734;2023-02-22T16:00:30;13.40;99.90
34574;DHT22;20809;49.594;8.734;2023-02-22T16:03:52;13.20;99.90
34574;DHT22;20809;49.594;8.734;2023-02-22T16:07:11;13.10;99.90
34574;DHT22;20809;49.594;8.734;2023-02-22T16:13:26;12.90;99.90
34574;DHT22;20809;49.594;8.734;2023-02-22T16:16:31;12.90;99.90
34574;DHT22;20809;49.594;8.734;2023-02-22T16:19:37;12.80;99.90
34574;DHT22;20809;49.594;8.734;2023-02-22T16:22:39;12.60;99.90
34574;DHT22;20809;49.594;8.734;2023-02-22T16:25:43;12.50;99.90
34574;DHT22;20809;49.594;8.734;2023-02-22T16:28:52;12.40;99.90
34574;DHT22;20809;49.594;8.734;2023-02-22T16:31:53;12.20;99.90
34574;DHT22;20809;49.594;8.734;2023-02-22T16:34:54;12.10;99.90
34574;DHT22;20809;49.594;8.734;2023-02-22T16:38:03;11.90;99.90
34574;DHT22;20809;49.594;8.734;2023-02-22T16:41:06;11.80;99.90
34574;DHT22;20809;49.594;8.734;2023-02-22T16:44:07;11.70;99.90
34574;DHT22;20809;49.594;8.734;2023-02-22T16:47:10;11.60;99.90
34574;DHT22;20809;49.594;8.734;2023-02-22T16:50:12;11.50;99.90
34574;DHT22;20809;49.594;8.734;2023-02-22T16:53:15;11.40;99.90
34574;DHT22;20809;49.594;8.734;2023-02-22T16:56:22;11.40;99.90
34574;DHT22;20809;49.594;8.734;2023-02-22T16:59:24;11.30;99.90
34574;DHT22;20809;49.594;8.734;2023-02-22T17:02:25;11.20;99.90
34574;DHT22;20809;49.594;8.734;2023-02-22T17:05:27;11.20;99.90
34574;DHT22;20809;49.594;8.734;2023-02-22T17:08:28;11.00;99.90
34574;DHT22;20809;49.594;8.734;2023-02-22T17:11:28;11.00;99.90
34574;DHT22;20809;49.594;8.734;2023-02-22T17:14:33;10.90;99.90
34574;DHT22;20809;49.594;8.734;2023-02-22T17:17:37;10.80;99.90
34574;DHT22;20809;49.594;8.734;2023-02-22T17:20:39;10.70;99.90
34574;DHT22;20809;49.594;8.734;2023-02-22T17:23:39;10.50;99.90
34574;DHT22;20809;49.594;8.734;2023-02-22T17:26:41;10.30;99.90
34574;DHT22;20809;49.594;8.734;2023-02-22T17:29:41;10.30;99.90
34574;DHT22;20809;49.594;8.734;2023-02-22T17:32:44;10.20;99.90
34574;DHT22;20809;49.594;8.734;2023-02-22T17:35:45;10.10;99.90
34574;DHT22;20809;49.594;8.734;2023-02-22T17:38:46;10.00;99.90
34574;DHT22;20809;49.594;8.734;2023-02-22T17:41:49;9.90;99.90
34574;DHT22;20809;49.594;8.734;2023-02-22T17:44:56;9.80;99.90
34574;DHT22;20809;49.594;8.734;2023-02-22T17:47:57;9.70;99.90
34574;DHT22;20809;49.594;8.734;2023-02-22T17:51:04;9.60;99.90
34574;DHT22;20809;49.594;8.734;2023-02-22T17:54:05;9.50;99.90
34574;DHT22;20809;49.594;8.734;2023-02-22T17:57:06;9.40;99.90
34574;DHT22;20809;49.594;8.734;2023-02-22T18:00:07;9.40;99.90
34574;DHT22;20809;49.594;8.734;2023-02-22T18:03:18;9.30;99.90
34574;DHT22;20809;49.594;8.734;2023-02-22T18:06:26;9.30;99.90
34574;DHT22;20809;49.594;8.734;2023-02-22T18:09:28;9.20;99.90
34574;DHT22;20809;49.594;8.734;2023-02-22T18:12:29;9.20;99.90
34574;DHT22;20809;49.594;8.734;2023-02-22T18:15:30;9.20;99.90
34574;DHT22;20809;49.594;8.734;2023-02-22T18:18:35;9.20;99.90
34574;DHT22;20809;49.594;8.734;2023-02-22T18:21:35;9.10;99.90
34574;DHT22;20809;49.594;8.734;2023-02-22T18:24:36;9.10;99.90
34574;DHT22;20809;49.594;8.734;2023-02-22T18:27:37;9.10;99.90
34574;DHT22;20809;49.594;8.734;2023-02-22T18:30:38;9.00;99.90
34574;DHT22;20809;49.594;8.734;2023-02-22T18:33:41;9.00;99.90
34574;DHT22;20809;49.594;8.734;2023-02-22T18:36:42;9.00;99.90
34574;DHT22;20809;49.594;8.734;2023-02-22T18:39:43;9.00;99.90
34574;DHT22;20809;49.594;8.734;2023-02-22T18:42:45;8.90;99.90
34574;DHT22;20809;49.594;8.734;2023-02-22T18:45:46;8.90;99.90
34574;DHT22;20809;49.594;8.734;2023-02-22T18:48:50;8.90;99.90
34574;DHT22;20809;49.594;8.734;2023-02-22T18:51:51;8.80;99.90
34574;DHT22;20809;49.594;8.734;2023-02-22T18:54:52;8.80;99.90
34574;DHT22;20809;49.594;8.734;2023-02-22T18:57:53;8.80;99.90
34574;DHT22;20809;49.594;8.734;2023-02-22T19:00:55;8.70;99.90
34574;DHT22;20809;49.594;8.734;2023-02-22T19:03:55;8.70;99.90
34574;DHT22;20809;49.594;8.734;2023-02-22T19:06:56;8.80;99.90
34574;DHT22;20809;49.594;8.734;2023-02-22T19:10:00;8.80;99.90
34574;DHT22;20809;49.594;8.734;2023-02-22T19:13:02;8.80;99.90
34574;DHT22;20809;49.594;8.734;2023-02-22T19:16:04;8.70;99.90
34574;DHT22;20809;49.594;8.734;2023-02-22T19:19:06;8.60;99.90
34574;DHT22;20809;49.594;8.734;2023-02-22T19:22:07;8.60;99.90
34574;DHT22;20809;49.594;8.734;2023-02-22T19:25:08;8.60;99.90
34574;DHT22;20809;49.594;8.734;2023-02-22T19:28:09;8.60;99.90
34574;DHT22;20809;49.594;8.734;2023-02-22T19:31:24;8.60;99.90
34574;DHT22;20809;49.594;8.734;2023-02-22T19:34:25;8.50;99.90
34574;DHT22;20809;49.594;8.734;2023-02-22T19:37:30;8.60;99.90
34574;DHT22;20809;49.594;8.734;2023-02-22T19:40:35;8.50;99.90
34574;DHT22;20809;49.594;8.734;2023-02-22T19:43:37;8.40;99.90
34574;DHT22;20809;49.594;8.734;2023-02-22T19:46:38;8.30;99.90
34574;DHT22;20809;49.594;8.734;2023-02-22T19:49:39;8.10;99.90
34574;DHT22;20809;49.594;8.734;2023-02-22T19:52:40;8.00;99.90
34574;DHT22;20809;49.594;8.734;2023-02-22T19:55:41;8.00;99.90
34574;DHT22;20809;49.594;8.734;2023-02-22T19:58:43;8.00;99.90
34574;DHT22;20809;49.594;8.734;2023-02-22T20:01:44;8.00;99.90
34574;DHT22;20809;49.594;8.734;2023-02-22T20:04:45;8.00;99.90
34574;DHT22;20809;49.594;8.734;2023-02-22T20:07:49;8.00;99.90
34574;DHT22;20809;49.594;8.734;2023-02-22T20:10:55;8.00;99.90
34574;DHT22;20809;49.594;8.734;2023-02-22T20:13:56;8.00;99.90
34574;DHT22;20809;49.594;8.734;2023-02-22T20:16:57;7.90;99.90
34574;DHT22;20809;49.594;8.734;2023-02-22T20:19:58;7.90;99.90
34574;DHT22;20809;49.594;8.734;2023-02-22T20:22:59;7.90;99.90
34574;DHT22;20809;49.594;8.734;2023-02-22T20:26:00;7.90;99.90
34574;DHT22;20809;49.594;8.734;2023-02-22T20:29:01;8.00;99.90
34574;DHT22;20809;49.594;8.734;2023-02-22T20:32:04;8.00;99.90
34574;DHT22;20809;49.594;8.734;2023-02-22T20:35:06;8.10;99.90
34574;DHT22;20809;49.594;8.734;2023-02-22T20:38:06;8.10;99.90
34574;DHT22;20809;49.594;8.734;2023-02-22T20:41:10;8.10;99.90
34574;DHT22;20809;49.594;8.734;2023-02-22T20:44:14;8.10;99.90
34574;DHT22;20809;49.594;8.734;2023-02-22T20:47:15;8.10;99.90
34574;DHT22;20809;49.594;8.734;2023-02-22T20:50:16;8.10;99.90
34574;DHT22;20809;49.594;8.734;2023-02-22T20:53:17;8.10;99.90
34574;DHT22;20809;49.594;8.734;2023-02-22T20:56:20;8.10;99.90
34574;DHT22;20809;49.594;8.734;2023-02-22T20:59:21;8.00;99.90
34574;DHT22;20809;49.594;8.734;2023-02-22T21:02:22;7.90;99.90
34574;DHT22;20809;49.594;8.734;2023-02-22T21:05:23;7.80;99.90
34574;DHT22;20809;49.594;8.734;2023-02-22T21:08:24;7.70;99.90
34574;DHT22;20809;49.594;8.734;2023-02-22T21:11:27;7.70;99.90
34574;DHT22;20809;49.594;8.734;2023-02-22T21:14:27;7.70;99.90
34574;DHT22;20809;49.594;8.734;2023-02-22T21:17:30;7.70;99.90
34574;DHT22;20809;49.594;8.734;2023-02-22T21:20:31;7.80;99.90
34574;DHT22;20809;49.594;8.734;2023-02-22T21:23:31;7.80;99.90